Time;durP1;ratioP1;P1;durP2;ratioP2;P2;SDS_P1;SDS_P2;PMS_P1;PMS_P2;Temp;Humidity;BMP_temperature;BMP_pressure;BME280_temperature;BME280_humidity;BME280_pressure;Samples;Min_cycle;Max_cycle;Signal;HPM_P1;HPM_P2
2023/10/22 00:02:22;;;;;;;4.78;1.60;;;;;;;-143.90;100.00;65065.84;6189325;23;20311;-80
2023/10/22 00:04:47;;;;;;;2.10;1.50;;;;;;;-143.90;100.00;65065.84;6216074;23;20522;-81
2023/10/22 00:07:14;;;;;;;4.75;1.70;;;;;;;-143.90;100.00;65065.84;6190641;23;20079;-79
2023/10/22 00:09:40;;;;;;;6.47;1.90;;;;;;;-143.90;100.00;65065.84;6214644;23;20004;-79
2023/10/22 00:12:05;;;;;;;3.78;1.50;;;;;;;-143.90;100.00;65065.84;6214149;23;20438;-80
2023/10/22 00:14:31;;;;;;;2.97;1.95;;;;;;;-143.90;100.00;65065.84;6187771;23;20005;-78
2023/10/22 00:16:56;;;;;;;5.82;1.70;;;;;;;-143.90;100.00;65065.84;6214291;23;20090;-79
2023/10/22 00:19:21;;;;;;;8.07;2.25;;;;;;;-143.90;100.00;65065.84;6214453;23;20008;-79
2023/10/22 00:21:47;;;;;;;4.03;1.77;;;;;;;-143.90;100.00;65065.84;6214911;23;20008;-80
2023/10/22 00:24:12;;;;;;;3.10;1.60;;;;;;;-143.90;100.00;65065.84;6188822;23;20015;-79
2023/10/22 00:26:39;;;;;;;3.13;1.85;;;;;;;-143.90;100.00;65065.84;6188567;23;20004;-80
2023/10/22 00:29:05;;;;;;;3.22;1.58;;;;;;;-143.90;100.00;65065.84;6214937;23;20001;-80
2023/10/22 00:31:30;;;;;;;3.00;1.40;;;;;;;-143.90;100.00;65065.84;6189284;23;20013;-79
2023/10/22 00:33:56;;;;;;;3.80;1.60;;;;;;;-143.90;100.00;65065.84;6189211;23;20330;-79
2023/10/22 00:36:24;;;;;;;4.25;1.70;;;;;;;-143.90;100.00;65065.84;6189129;23;20377;-80
2023/10/22 00:38:49;;;;;;;7.00;2.03;;;;;;;-143.90;100.00;65065.84;6215934;23;20084;-82
2023/10/22 00:41:15;;;;;;;4.22;2.20;;;;;;;-143.90;100.00;65065.84;6190044;23;20004;-81
2023/10/22 00:43:40;;;;;;;4.13;1.95;;;;;;;-143.90;100.00;65065.84;6192366;23;20418;-81
2023/10/22 00:46:05;;;;;;;2.85;1.40;;;;;;;-143.90;100.00;65065.84;6217119;23;20005;-80
2023/10/22 00:48:31;;;;;;;2.47;1.63;;;;;;;-143.90;100.00;65065.84;6215725;23;20039;-79
2023/10/22 00:50:56;;;;;;;2.75;1.90;;;;;;;-143.90;100.00;65065.84;6190795;23;20032;-80
2023/10/22 00:53:27;;;;;;;4.90;1.80;;;;;;;-143.90;100.00;65065.84;6189842;23;20009;-81
2023/10/22 00:55:53;;;;;;;2.85;1.80;;;;;;;-143.90;100.00;65065.84;6191874;23;20004;-81
2023/10/22 00:58:20;;;;;;;3.70;1.77;;;;;;;-143.90;100.00;65065.84;6190650;23;20008;-79
2023/10/22 01:00:45;;;;;;;2.08;1.40;;;;;;;-143.90;100.00;65065.84;6190320;23;20012;-80
2023/10/22 01:03:16;;;;;;;8.25;2.00;;;;;;;-143.90;100.00;65065.84;6191361;23;20036;-79
2023/10/22 01:05:41;;;;;;;5.15;1.92;;;;;;;-143.90;100.00;65065.84;6191478;23;20370;-80
2023/10/22 01:08:09;;;;;;;4.65;1.63;;;;;;;-143.90;100.00;65065.84;6217672;23;20009;-80
2023/10/22 01:10:34;;;;;;;4.78;1.65;;;;;;;-143.90;100.00;65065.84;6216782;23;20016;-80
2023/10/22 01:13:00;;;;;;;4.25;1.65;;;;;;;-143.90;100.00;65065.84;6193284;23;20004;-81
2023/10/22 01:15:26;;;;;;;5.63;3.10;;;;;;;-143.90;100.00;65065.84;6188513;23;20008;-81
2023/10/22 01:17:51;;;;;;;3.50;1.80;;;;;;;-143.90;100.00;65065.84;6215601;23;20004;-79
2023/10/22 01:20:17;;;;;;;3.75;1.88;;;;;;;-143.90;100.00;65065.84;6189910;23;20020;-82
2023/10/22 01:22:42;;;;;;;2.92;1.60;;;;;;;-143.90;100.00;65065.84;6215164;23;20058;-82
2023/10/22 01:25:08;;;;;;;4.75;2.25;;;;;;;-143.90;100.00;65065.84;6191082;23;20044;-81
2023/10/22 01:27:35;;;;;;;2.67;1.73;;;;;;;-143.90;100.00;65065.84;6192665;23;20441;-80
2023/10/22 01:30:01;;;;;;;3.78;1.70;;;;;;;-143.90;100.00;65065.84;6191875;23;20008;-80
2023/10/22 01:32:30;;;;;;;5.47;1.85;;;;;;;-143.90;100.00;65065.84;6216929;23;20433;-80
2023/10/22 01:34:58;;;;;;;5.18;2.03;;;;;;;-143.90;100.00;65065.84;6191327;23;20016;-82
2023/10/22 01:37:23;;;;;;;3.67;1.83;;;;;;;-143.90;100.00;65065.84;6216222;23;20007;-83
2023/10/22 01:39:59;;;;;;;6.80;1.92;;;;;;;-143.90;100.00;65065.84;6192509;23;20005;-84
2023/10/22 01:42:25;;;;;;;5.70;2.28;;;;;;;-143.90;100.00;65065.84;6215702;23;20027;-81
2023/10/22 01:44:53;;;;;;;4.07;2.20;;;;;;;-143.90;100.00;65065.84;6189497;23;20429;-81
2023/10/22 01:47:18;;;;;;;5.38;2.00;;;;;;;-143.90;100.00;65065.84;6189764;23;20003;-81
2023/10/22 01:49:49;;;;;;;7.60;2.30;;;;;;;-143.90;100.00;65065.84;6188015;23;20032;-83
2023/10/22 01:52:15;;;;;;;4.57;2.30;;;;;;;-143.90;100.00;65065.84;6187900;23;20008;-83
2023/10/22 01:54:40;;;;;;;5.78;2.47;;;;;;;-143.90;100.00;65065.84;6188073;23;20420;-82
2023/10/22 01:57:07;;;;;;;4.22;2.25;;;;;;;-143.90;100.00;65065.84;6188792;23;20051;-83
2023/10/22 01:59:37;;;;;;;5.90;2.85;;;;;;;-143.90;100.00;65065.84;6187512;23;20016;-84
2023/10/22 02:02:05;;;;;;;5.60;2.60;;;;;;;-143.90;100.00;65065.84;6215210;23;20000;-83
2023/10/22 02:04:31;;;;;;;6.20;2.42;;;;;;;-143.90;100.00;65065.84;6215405;23;20028;-82
2023/10/22 02:06:57;;;;;;;5.22;2.70;;;;;;;-143.90;100.00;65065.84;6195624;23;20008;-81
2023/10/22 02:09:23;;;;;;;5.65;2.80;;;;;;;-143.90;100.00;65065.84;6222318;23;20445;-81
2023/10/22 02:11:55;;;;;;;5.18;2.58;;;;;;;-143.90;100.00;65065.84;6190565;23;20043;-82
2023/10/22 02:21:45;;;;;;;7.65;2.90;;;;;;;-143.90;100.00;65065.84;6083490;23;20128;-83
2023/10/22 02:27:43;;;;;;;4.95;2.75;;;;;;;-143.90;100.00;65065.84;6213960;23;20078;-83
2023/10/22 02:30:50;;;;;;;6.97;2.70;;;;;;;-143.90;100.00;65065.84;6187231;23;20091;-82
2023/10/22 02:36:15;;;;;;;7.47;3.00;;;;;;;-143.90;100.00;65065.84;6201683;23;20012;-82
2023/10/22 02:38:43;;;;;;;8.80;2.75;;;;;;;-143.90;100.00;65065.84;6187640;23;20012;-82
2023/10/22 02:41:52;;;;;;;3.28;2.30;;;;;;;-143.90;100.00;65065.84;6213954;23;20054;-82
2023/10/22 02:44:29;;;;;;;4.20;3.13;;;;;;;-143.90;100.00;65065.84;6186451;23;20453;-83
2023/10/22 02:46:59;;;;;;;5.72;3.10;;;;;;;-143.90;100.00;65065.84;6213881;23;20330;-81
2023/10/22 02:49:27;;;;;;;12.82;3.53;;;;;;;-143.90;100.00;65065.84;6213664;23;20024;-82
2023/10/22 02:51:53;;;;;;;6.13;3.45;;;;;;;-143.90;100.00;65065.84;6187310;23;20009;-84
2023/10/22 02:54:28;;;;;;;7.93;4.10;;;;;;;-143.90;100.00;65065.84;6214018;23;20494;-81
2023/10/22 02:57:08;;;;;;;;;;;;;;;;;;;;;
2023/10/22 02:59:47;;;;;;;7.32;3.58;;;;;;;-143.90;100.00;65065.84;6213714;23;20489;-81
2023/10/22 03:02:44;;;;;;;8.65;3.33;;;;;;;-143.90;100.00;65065.84;6185511;23;20425;-82
2023/10/22 03:05:19;;;;;;;7.82;3.20;;;;;;;-143.90;100.00;65065.84;6187077;23;20056;-80
2023/10/22 03:07:44;;;;;;;7.85;3.42;;;;;;;-143.90;100.00;65065.84;6187215;23;20005;-82
2023/10/22 03:10:24;;;;;;;6.60;3.47;;;;;;;-143.90;100.00;65065.84;6186951;23;20016;-82
2023/10/22 03:17:01;;;;;;;6.63;3.10;;;;;;;-143.90;100.00;65065.84;6214207;23;20471;-81
2023/10/22 03:26:14;;;;;;;10.50;3.42;;;;;;;-143.90;100.00;65065.84;6109282;23;20021;-80
2023/10/22 03:28:40;;;;;;;4.90;3.40;;;;;;;-143.90;100.00;65065.84;6191888;23;20035;-80
2023/10/22 03:31:05;;;;;;;7.07;4.47;;;;;;;-143.90;100.00;65065.84;6215102;23;20008;-81
2023/10/22 03:33:32;;;;;;;8.73;4.28;;;;;;;-143.90;100.00;65065.84;6221077;23;20009;-81
2023/10/22 03:35:58;;;;;;;7.22;4.57;;;;;;;-143.90;100.00;65065.84;6195201;23;20019;-81
2023/10/22 03:38:27;;;;;;;6.93;4.50;;;;;;;-143.90;100.00;65065.84;6213849;23;20353;-82
2023/10/22 03:41:06;;;;;;;7.25;4.60;;;;;;;-143.90;100.00;65065.84;6213958;23;20426;-83
2023/10/22 03:43:34;;;;;;;6.63;4.25;;;;;;;-143.90;100.00;65065.84;6215854;23;20433;-81
2023/10/22 03:46:01;;;;;;;8.90;5.25;;;;;;;-143.90;100.00;65065.84;6192392;23;20015;-81
2023/10/22 03:48:27;;;;;;;9.68;4.72;;;;;;;-143.90;100.00;65065.84;6188355;23;20059;-81
2023/10/22 03:50:53;;;;;;;9.82;4.95;;;;;;;-143.90;100.00;65065.84;6214013;23;20009;-79
2023/10/22 03:53:19;;;;;;;10.10;5.80;;;;;;;-143.90;100.00;65065.84;6187757;23;20011;-80
2023/10/22 03:55:45;;;;;;;10.60;5.97;;;;;;;-143.90;100.00;65065.84;6213481;23;20095;-81
2023/10/22 03:58:10;;;;;;;10.27;5.75;;;;;;;-143.90;100.00;65065.84;6187895;23;20087;-81
2023/10/22 04:00:35;;;;;;;12.48;6.43;;;;;;;-143.90;100.00;65065.84;6188377;23;20008;-81
2023/10/22 04:03:01;;;;;;;10.85;6.28;;;;;;;-143.90;100.00;65065.84;6214713;23;20008;-80
2023/10/22 04:05:28;;;;;;;10.40;6.10;;;;;;;-143.90;100.00;65065.84;6188793;23;20445;-80
2023/10/22 04:07:53;;;;;;;14.98;6.90;;;;;;;-143.90;100.00;65065.84;6189690;23;20434;-81
2023/10/22 04:10:18;;;;;;;9.27;6.18;;;;;;;-143.90;100.00;65065.84;6188603;23;20063;-81
2023/10/22 04:12:44;;;;;;;16.80;7.70;;;;;;;-143.90;100.00;65065.84;6215846;23;20063;-80
2023/10/22 04:15:10;;;;;;;8.98;6.03;;;;;;;-143.90;100.00;65065.84;6215134;23;20083;-80
2023/10/22 04:17:35;;;;;;;9.75;5.22;;;;;;;-143.90;100.00;65065.84;6214817;23;20445;-80
2023/10/22 04:20:00;;;;;;;10.93;5.80;;;;;;;-143.90;100.00;65065.84;6214638;23;20012;-80
2023/10/22 04:22:29;;;;;;;12.85;5.93;;;;;;;-143.90;100.00;65065.84;6213065;23;20016;-80
2023/10/22 04:24:54;;;;;;;6.75;5.03;;;;;;;-143.90;100.00;65065.84;6214529;23;20005;-81
2023/10/22 04:27:19;;;;;;;9.93;5.43;;;;;;;-143.90;100.00;65065.84;6188029;23;20426;-79
2023/10/22 04:29:46;;;;;;;12.93;6.10;;;;;;;-143.90;100.00;65065.84;6214571;23;20011;-80
2023/10/22 04:32:16;;;;;;;12.85;6.47;;;;;;;-143.90;100.00;65065.84;6213050;23;20032;-81
2023/10/22 04:34:42;;;;;;;8.20;6.18;;;;;;;-143.90;100.00;65065.84;6189671;23;20128;-80
2023/10/22 04:37:09;;;;;;;10.05;5.65;;;;;;;-143.90;100.00;65065.84;6215788;23;20407;-80
2023/10/22 04:39:35;;;;;;;8.07;5.35;;;;;;;-143.90;100.00;65065.84;6216363;23;20075;-80
2023/10/22 04:42:00;;;;;;;11.98;5.70;;;;;;;-143.90;100.00;65065.84;6215287;23;20441;-80
2023/10/22 04:44:26;;;;;;;8.07;5.57;;;;;;;-143.90;100.00;65065.84;6214723;23;20008;-78
2023/10/22 04:46:51;;;;;;;9.75;5.32;;;;;;;-143.90;100.00;65065.84;6215359;23;20286;-79
2023/10/22 04:49:17;;;;;;;10.82;5.93;;;;;;;-143.90;100.00;65065.84;6188476;23;20417;-79
2023/10/22 04:51:43;;;;;;;13.02;8.05;;;;;;;-143.90;100.00;65065.84;6215116;23;20083;-79
2023/10/22 04:54:08;;;;;;;11.80;5.38;;;;;;;-143.90;100.00;65065.84;6216282;23;20008;-79
2023/10/22 04:56:34;;;;;;;8.73;5.78;;;;;;;-143.90;100.00;65065.84;6214978;23;20005;-78
2023/10/22 04:58:59;;;;;;;9.30;6.10;;;;;;;-143.90;100.00;65065.84;6213027;23;20047;-79
2023/10/22 05:01:25;;;;;;;11.05;5.63;;;;;;;-143.90;100.00;65065.84;6214397;23;20013;-79
2023/10/22 05:03:50;;;;;;;11.40;6.65;;;;;;;-143.90;100.00;65065.84;6214304;23;20004;-79
2023/10/22 05:06:15;;;;;;;12.75;5.63;;;;;;;-143.90;100.00;65065.84;6214885;23;20032;-79
2023/10/22 05:08:41;;;;;;;9.40;6.28;;;;;;;-143.90;100.00;65065.84;6213348;23;20365;-79
2023/10/22 05:11:12;;;;;;;13.25;6.10;;;;;;;-143.90;100.00;65065.84;6214000;23;20377;-79
2023/10/22 05:13:37;;;;;;;13.48;6.18;;;;;;;-143.90;100.00;65065.84;6213811;23;20011;-80
2023/10/22 05:16:02;;;;;;;9.40;5.60;;;;;;;-143.90;100.00;65065.84;6187870;23;20426;-79
2023/10/22 05:18:28;;;;;;;11.30;6.20;;;;;;;-143.90;100.00;65065.84;6187490;23;20252;-80
2023/10/22 05:21:00;;;;;;;9.35;5.55;;;;;;;-143.90;100.00;65065.84;6214140;23;20015;-80
2023/10/22 05:23:26;;;;;;;12.40;6.00;;;;;;;-143.90;100.00;65065.84;6214173;23;20009;-80
2023/10/22 05:26:02;;;;;;;8.45;5.78;;;;;;;-143.90;100.00;65065.84;6213392;23;20240;-79
2023/10/22 05:28:27;;;;;;;12.18;5.18;;;;;;;-143.90;100.00;65065.84;6214347;23;20437;-80
2023/10/22 05:30:52;;;;;;;9.60;4.97;;;;;;;-143.90;100.00;65065.84;6187521;23;20009;-80
2023/10/22 05:33:18;;;;;;;9.65;5.50;;;;;;;-143.90;100.00;65065.84;6214440;23;20032;-80
2023/10/22 05:35:43;;;;;;;12.95;6.50;;;;;;;-143.90;100.00;65065.84;6213445;23;20001;-82
2023/10/22 05:38:08;;;;;;;12.93;5.85;;;;;;;-143.90;100.00;65065.84;6212786;23;20012;-81
2023/10/22 05:40:37;;;;;;;14.70;6.18;;;;;;;-143.90;100.00;65065.84;6214179;23;20062;-81
2023/10/22 05:43:03;;;;;;;10.48;5.40;;;;;;;-143.90;100.00;65065.84;6214205;23;20005;-79
2023/10/22 05:45:28;;;;;;;10.85;5.60;;;;;;;-143.90;100.00;65065.84;6214112;23;20054;-79
2023/10/22 05:47:53;;;;;;;13.07;5.68;;;;;;;-143.90;100.00;65065.84;6187567;23;20678;-79
2023/10/22 05:50:19;;;;;;;11.05;5.55;;;;;;;-143.90;100.00;65065.84;6214339;23;20050;-79
2023/10/22 05:52:44;;;;;;;9.07;5.82;;;;;;;-143.90;100.00;65065.84;6214143;23;20054;-81
2023/10/22 05:55:09;;;;;;;10.77;6.03;;;;;;;-143.90;100.00;65065.84;6213981;23;20422;-80
2023/10/22 05:57:34;;;;;;;9.63;5.00;;;;;;;-143.90;100.00;65065.84;6214153;23;20005;-80
2023/10/22 06:00:00;;;;;;;8.30;5.10;;;;;;;-143.90;100.00;65065.84;6214088;23;20009;-80
2023/10/22 06:02:25;;;;;;;9.77;5.05;;;;;;;-143.90;100.00;65065.84;6214046;23;20011;-79
2023/10/22 06:04:50;;;;;;;10.68;4.75;;;;;;;-143.90;100.00;65065.84;6212485;23;20052;-80
2023/10/22 06:07:16;;;;;;;8.20;4.80;;;;;;;-143.90;100.00;65065.84;6213979;23;20418;-80
2023/10/22 06:09:41;;;;;;;9.30;4.78;;;;;;;-143.90;100.00;65065.84;6214741;23;20063;-80
2023/10/22 06:12:08;;;;;;;9.10;4.47;;;;;;;-143.90;100.00;65065.84;6212358;23;20095;-81
2023/10/22 06:14:35;;;;;;;7.57;4.80;;;;;;;-143.90;100.00;65065.84;6213845;23;20361;-81
2023/10/22 06:17:00;;;;;;;9.00;4.60;;;;;;;-143.90;100.00;65065.84;6213966;23;20005;-82
2023/10/22 06:19:25;;;;;;;9.57;4.38;;;;;;;-143.90;100.00;65065.84;6213853;23;20333;-81
2023/10/22 06:21:50;;;;;;;7.53;4.65;;;;;;;-143.90;100.00;65065.84;6214003;23;20425;-80
2023/10/22 06:24:16;;;;;;;5.97;4.80;;;;;;;-143.90;100.00;65065.84;6212382;23;20039;-81
2023/10/22 06:26:41;;;;;;;8.48;4.72;;;;;;;-143.90;100.00;65065.84;6214188;23;20009;-81
2023/10/22 06:29:06;;;;;;;7.37;4.30;;;;;;;-143.90;100.00;65065.84;6214249;23;20004;-80
2023/10/22 06:31:32;;;;;;;5.57;4.05;;;;;;;-143.90;100.00;65065.84;6213963;23;20255;-81
2023/10/22 06:33:57;;;;;;;7.20;3.85;;;;;;;-143.90;100.00;65065.84;6214618;23;20008;-79
2023/10/22 06:36:23;;;;;;;7.68;4.00;;;;;;;-143.90;100.00;65065.84;6187792;23;20009;-79
2023/10/22 06:38:49;;;;;;;7.85;4.47;;;;;;;-143.90;100.00;65065.84;6214309;23;20005;-79
2023/10/22 06:41:23;;;;;;;7.90;3.83;;;;;;;-143.90;100.00;65065.84;6214054;23;20015;-79
2023/10/22 06:43:49;;;;;;;6.05;3.65;;;;;;;-143.90;100.00;65065.84;6212372;23;20070;-80
2023/10/22 06:46:17;;;;;;;8.05;3.47;;;;;;;-143.90;100.00;65065.84;6214137;23;20087;-80
2023/10/22 06:48:42;;;;;;;6.70;3.35;;;;;;;-143.90;100.00;65065.84;6213816;23;20000;-80
2023/10/22 06:51:10;;;;;;;8.63;3.65;;;;;;;-143.90;100.00;65065.84;6187195;23;20023;-81
2023/10/22 06:53:35;;;;;;;5.13;3.38;;;;;;;-143.90;100.00;65065.84;6187205;23;20005;-80
2023/10/22 06:56:02;;;;;;;6.10;3.53;;;;;;;-143.90;100.00;65065.84;6213521;23;20385;-79
2023/10/22 06:58:28;;;;;;;8.25;3.10;;;;;;;-143.90;100.00;65065.84;6187126;23;20012;-79
2023/10/22 07:01:11;;;;;;;8.02;4.03;;;;;;;-143.90;100.00;65065.84;6187141;23;20023;-79
2023/10/22 07:03:43;;;;;;;6.82;3.53;;;;;;;-143.90;100.00;65065.84;6213738;23;20078;-80
2023/10/22 07:06:08;;;;;;;6.88;3.28;;;;;;;-143.90;100.00;65065.84;6213629;23;20016;-80
2023/10/22 07:08:33;;;;;;;7.63;3.13;;;;;;;-143.90;100.00;65065.84;6187006;23;20446;-80
2023/10/22 07:10:59;;;;;;;6.80;3.30;;;;;;;-143.90;100.00;65065.84;6213620;23;20386;-81
2023/10/22 07:13:25;;;;;;;5.63;3.05;;;;;;;-143.90;100.00;65065.84;6213616;23;20310;-80
2023/10/22 07:15:52;;;;;;;3.83;2.97;;;;;;;-143.90;100.00;65065.84;6213559;23;20031;-81
2023/10/22 07:18:18;;;;;;;6.03;3.15;;;;;;;-143.90;100.00;65065.84;6211921;23;20430;-81
2023/10/22 07:20:43;;;;;;;6.55;3.05;;;;;;;-143.90;100.00;65065.84;6211808;23;20083;-80
2023/10/22 07:23:09;;;;;;;4.93;2.53;;;;;;;-143.90;100.00;65065.84;6186705;23;20012;-80
2023/10/22 07:25:36;;;;;;;6.32;2.75;;;;;;;-143.90;100.00;65065.84;6213554;23;20007;-80
2023/10/22 07:28:02;;;;;;;8.25;3.33;;;;;;;-143.90;100.00;65065.84;6211730;23;20039;-80
2023/10/22 07:30:27;;;;;;;8.80;3.22;;;;;;;-143.90;100.00;65065.84;6213373;23;20008;-80
2023/10/22 07:32:53;;;;;;;4.20;2.83;;;;;;;-143.90;100.00;65065.84;6213137;23;20004;-78
2023/10/22 07:35:20;;;;;;;10.13;3.20;;;;;;;-143.90;100.00;65065.84;6211769;23;20017;-80
2023/10/22 07:37:45;;;;;;;4.05;2.45;;;;;;;-143.90;100.00;65065.84;6214241;23;20004;-80
2023/10/22 07:40:14;;;;;;;6.35;2.63;;;;;;;-143.90;100.00;65065.84;6187637;23;20063;-79
2023/10/22 07:42:41;;;;;;;8.73;2.50;;;;;;;-143.90;100.00;65065.84;6187557;23;20059;-79
2023/10/22 07:45:08;;;;;;;6.43;2.60;;;;;;;-143.90;100.00;65065.84;6187719;23;20087;-80
2023/10/22 07:47:33;;;;;;;5.22;2.47;;;;;;;-143.90;100.00;65065.84;6214650;23;20001;-79
2023/10/22 07:49:58;;;;;;;3.75;2.42;;;;;;;-143.90;100.00;65065.84;6214472;23;20058;-79
2023/10/22 07:52:24;;;;;;;2.80;2.33;;;;;;;-143.90;100.00;65065.84;6213073;23;20005;-79
2023/10/22 07:54:52;;;;;;;4.25;2.70;;;;;;;-143.90;100.00;65065.84;6187935;23;20339;-79
2023/10/22 07:57:18;;;;;;;8.30;2.47;;;;;;;-143.90;100.00;65065.84;6187892;23;20076;-81
2023/10/22 07:59:43;;;;;;;5.10;2.28;;;;;;;-143.90;100.00;65065.84;6213054;23;20013;-79
2023/10/22 08:02:09;;;;;;;6.88;3.17;;;;;;;-143.90;100.00;65065.84;6214791;23;20012;-79
2023/10/22 08:04:35;;;;;;;3.95;2.45;;;;;;;-143.90;100.00;65065.84;6187999;23;20008;-80
2023/10/22 08:07:01;;;;;;;3.50;2.50;;;;;;;-143.90;100.00;65065.84;6188072;23;20397;-81
2023/10/22 08:09:26;;;;;;;4.38;2.58;;;;;;;-143.90;100.00;65065.84;6212839;23;20063;-80
2023/10/22 08:11:51;;;;;;;7.20;2.75;;;;;;;-143.90;100.00;65065.84;6213050;23;20031;-79
2023/10/22 08:14:16;;;;;;;3.43;2.50;;;;;;;-143.90;100.00;65065.84;6215215;23;20517;-79
2023/10/22 08:16:42;;;;;;;6.80;3.03;;;;;;;-143.90;100.00;65065.84;6214537;23;20303;-79
2023/10/22 08:19:07;;;;;;;6.32;2.72;;;;;;;-143.90;100.00;65065.84;6214721;23;20240;-81
2023/10/22 08:21:32;;;;;;;3.92;3.15;;;;;;;-143.90;100.00;65065.84;6214757;23;20001;-80
2023/10/22 08:23:57;;;;;;;5.22;2.40;;;;;;;-143.90;100.00;65065.84;6215302;23;20009;-79
2023/10/22 08:26:24;;;;;;;6.05;3.15;;;;;;;-143.90;100.00;65065.84;6215254;23;20024;-79
2023/10/22 08:28:49;;;;;;;5.40;2.65;;;;;;;-143.90;100.00;65065.84;6214653;23;20314;-80
2023/10/22 08:31:14;;;;;;;6.50;3.08;;;;;;;-143.90;100.00;65065.84;6214479;23;20031;-80
2023/10/22 08:33:39;;;;;;;6.22;2.95;;;;;;;-143.90;100.00;65065.84;6214557;23;20009;-81
2023/10/22 08:36:08;;;;;;;4.43;2.92;;;;;;;-143.90;100.00;65065.84;6212806;23;20011;-82
2023/10/22 08:38:34;;;;;;;5.88;2.95;;;;;;;-143.90;100.00;65065.84;6214558;23;20008;-81
2023/10/22 08:41:02;;;;;;;4.55;2.72;;;;;;;-143.90;100.00;65065.84;6187981;23;20326;-82
2023/10/22 08:43:32;;;;;;;5.18;3.00;;;;;;;-143.90;100.00;65065.84;6212904;23;20028;-81
2023/10/22 08:45:57;;;;;;;8.10;3.53;;;;;;;-143.90;100.00;65065.84;6215180;23;20039;-79
2023/10/22 08:48:24;;;;;;;4.93;3.22;;;;;;;-143.90;100.00;65065.84;6189490;23;20307;-80
2023/10/22 08:50:51;;;;;;;7.25;3.63;;;;;;;-143.90;100.00;65065.84;6214805;23;20328;-79
2023/10/22 08:53:17;;;;;;;5.75;3.20;;;;;;;-143.90;100.00;65065.84;6212855;23;20091;-77
2023/10/22 08:55:47;;;;;;;5.07;2.90;;;;;;;-143.90;100.00;65065.84;6214540;23;20005;-79
2023/10/22 08:58:20;;;;;;;6.25;3.38;;;;;;;-143.90;100.00;65065.84;6212960;23;20011;-77
2023/10/22 09:00:47;;;;;;;4.70;3.15;;;;;;;-143.90;100.00;65065.84;6214552;23;20028;-78
2023/10/22 09:03:14;;;;;;;6.45;3.33;;;;;;;-143.90;100.00;65065.84;6212692;23;20009;-78
2023/10/22 09:05:40;;;;;;;5.45;3.65;;;;;;;-143.90;100.00;65065.84;6214493;23;20334;-77
2023/10/22 09:08:05;;;;;;;7.57;3.00;;;;;;;-143.90;100.00;65065.84;6188022;23;20004;-77
2023/10/22 09:10:32;;;;;;;7.75;3.13;;;;;;;-143.90;100.00;65065.84;6214611;23;20040;-78
2023/10/22 09:13:06;;;;;;;5.63;3.20;;;;;;;-143.90;100.00;65065.84;6187905;23;20042;-78
2023/10/22 09:15:39;;;;;;;3.05;2.40;;;;;;;-143.90;100.00;65065.84;6187777;23;20008;-77
2023/10/22 09:18:04;;;;;;;6.07;3.38;;;;;;;-143.90;100.00;65065.84;6188178;23;20087;-79
2023/10/22 09:20:30;;;;;;;5.47;3.15;;;;;;;-143.90;100.00;65065.84;6187857;23;20112;-78
2023/10/22 09:23:19;;;;;;;6.25;3.33;;;;;;;-143.90;100.00;65065.84;6215175;23;20058;-78
2023/10/22 09:25:50;;;;;;;5.95;2.88;;;;;;;-143.90;100.00;65065.84;6214560;23;20013;-78
2023/10/22 09:28:41;;;;;;;5.03;3.03;;;;;;;-143.90;100.00;65065.84;6215056;23;20013;-78
2023/10/22 09:31:07;;;;;;;4.80;3.33;;;;;;;-143.90;100.00;65065.84;6184300;23;20012;-78
2023/10/22 09:33:36;;;;;;;7.60;3.75;;;;;;;-143.90;100.00;65065.84;6213238;23;20009;-78
2023/10/22 09:36:12;;;;;;;5.13;3.25;;;;;;;-143.90;100.00;65065.84;6215080;23;20001;-78
2023/10/22 09:38:46;;;;;;;11.60;4.10;;;;;;;-143.90;100.00;65065.84;6188218;23;20015;-77
2023/10/22 09:41:31;;;;;;;10.00;3.35;;;;;;;-143.90;100.00;65065.84;6214436;23;20008;-78
2023/10/22 09:44:01;;;;;;;7.35;4.00;;;;;;;-143.90;100.00;65065.84;6214130;23;20062;-78
2023/10/22 09:46:33;;;;;;;7.90;4.50;;;;;;;-143.90;100.00;65065.84;6187529;23;20005;-77
2023/10/22 09:49:00;;;;;;;7.53;3.78;;;;;;;-143.90;100.00;65065.84;6187483;23;20004;-78
2023/10/22 09:51:30;;;;;;;5.13;4.05;;;;;;;-143.90;100.00;65065.84;6214073;23;20031;-78
2023/10/22 09:53:56;;;;;;;6.68;4.25;;;;;;;-143.90;100.00;65065.84;6214361;23;20015;-77
2023/10/22 09:56:23;;;;;;;9.45;4.40;;;;;;;-143.90;100.00;65065.84;6214631;23;20372;-78
2023/10/22 09:59:10;;;;;;;8.35;5.15;;;;;;;-143.90;100.00;65065.84;6212294;23;20038;-76
2023/10/22 10:01:36;;;;;;;6.25;3.88;;;;;;;-143.90;100.00;65065.84;6187424;23;20039;-77
2023/10/22 10:04:04;;;;;;;7.50;3.58;;;;;;;-143.90;100.00;65065.84;6187614;23;20012;-77
2023/10/22 10:06:30;;;;;;;6.57;4.30;;;;;;;-143.90;100.00;65065.84;6214124;23;20008;-77
2023/10/22 10:08:57;;;;;;;5.70;3.85;;;;;;;-143.90;100.00;65065.84;6214078;23;20071;-77
2023/10/22 10:11:23;;;;;;;4.68;3.55;;;;;;;-143.90;100.00;65065.84;6187322;23;20008;-77
2023/10/22 10:13:49;;;;;;;5.60;3.78;;;;;;;-143.90;100.00;65065.84;6214132;23;20009;-77
2023/10/22 10:16:14;;;;;;;8.52;3.20;;;;;;;-143.90;100.00;65065.84;6187602;23;20429;-77
2023/10/22 10:19:02;;;;;;;8.00;4.03;;;;;;;-143.90;100.00;65065.84;6213936;23;20016;-77
2023/10/22 10:21:33;;;;;;;8.48;4.05;;;;;;;-143.90;100.00;65065.84;6187539;23;20068;-77
2023/10/22 10:24:14;;;;;;;6.10;3.88;;;;;;;-143.90;100.00;65065.84;6213989;23;20012;-78
2023/10/22 10:26:40;;;;;;;4.72;4.10;;;;;;;-143.90;100.00;65065.84;6187385;23;20019;-77
2023/10/22 10:29:05;;;;;;;5.45;4.32;;;;;;;-143.90;100.00;65065.84;6212572;23;20042;-76
2023/10/22 10:31:31;;;;;;;8.52;4.35;;;;;;;-143.90;100.00;65065.84;6213781;23;20334;-76
2023/10/22 10:34:02;;;;;;;6.18;4.75;;;;;;;-143.90;100.00;65065.84;6187351;23;20035;-76
2023/10/22 10:36:28;;;;;;;8.07;4.82;;;;;;;-143.90;100.00;65065.84;6213851;23;20012;-76
2023/10/22 10:39:14;;;;;;;5.55;4.40;;;;;;;-143.90;100.00;65065.84;6212563;23;20005;-77
2023/10/22 10:41:52;;;;;;;5.88;4.22;;;;;;;-143.90;100.00;65065.84;6213929;23;20088;-76
2023/10/22 10:44:18;;;;;;;7.40;4.72;;;;;;;-143.90;100.00;65065.84;6214161;23;20005;-78
2023/10/22 10:46:43;;;;;;;15.35;5.80;;;;;;;-143.90;100.00;65065.84;6212837;23;20011;-78
2023/10/22 10:49:08;;;;;;;6.05;4.35;;;;;;;-143.90;100.00;65065.84;6187295;23;20017;-77
2023/10/22 10:51:34;;;;;;;6.95;4.47;;;;;;;-143.90;100.00;65065.84;6187195;23;20012;-79
2023/10/22 10:54:02;;;;;;;7.97;4.35;;;;;;;-143.90;100.00;65065.84;6214134;23;20004;-78
2023/10/22 10:56:52;;;;;;;7.20;4.47;;;;;;;-143.90;100.00;65065.84;6214044;23;20484;-78
2023/10/22 10:59:35;;;;;;;7.03;4.65;;;;;;;-143.90;100.00;65065.84;6214665;23;20001;-79
2023/10/22 11:02:06;;;;;;;9.38;4.95;;;;;;;-143.90;100.00;65065.84;6213893;23;20009;-78
2023/10/22 11:04:33;;;;;;;6.78;5.10;;;;;;;-143.90;100.00;65065.84;6212310;23;20001;-77
2023/10/22 11:06:59;;;;;;;6.60;4.30;;;;;;;-143.90;100.00;65065.84;6213821;23;20035;-76
2023/10/22 11:09:24;;;;;;;6.10;4.75;;;;;;;-143.90;100.00;65065.84;6213396;23;20012;-76
2023/10/22 11:11:56;;;;;;;6.40;4.38;;;;;;;-143.90;100.00;65065.84;6186733;23;20004;-76
2023/10/22 11:14:22;;;;;;;8.35;4.43;;;;;;;-143.90;100.00;65065.84;6213694;23;20001;-76
2023/10/22 11:16:53;;;;;;;8.60;4.95;;;;;;;-143.90;100.00;65065.84;6213725;23;20000;-76
2023/10/22 11:19:23;;;;;;;7.85;4.60;;;;;;;-143.90;100.00;65065.84;6213760;23;20076;-76
2023/10/22 11:21:49;;;;;;;5.68;4.13;;;;;;;-143.90;100.00;65065.84;6213835;23;20012;-74
2023/10/22 11:24:14;;;;;;;8.90;4.93;;;;;;;-143.90;100.00;65065.84;6213783;23;20386;-77
2023/10/22 11:26:42;;;;;;;7.78;4.65;;;;;;;-143.90;100.00;65065.84;6213444;23;20080;-76
2023/10/22 11:29:08;;;;;;;6.18;4.40;;;;;;;-143.90;100.00;65065.84;6186993;23;20035;-76
2023/10/22 11:31:33;;;;;;;5.63;4.38;;;;;;;-143.90;100.00;65065.84;6186768;23;20008;-77
2023/10/22 11:34:13;;;;;;;8.30;4.90;;;;;;;-143.90;100.00;65065.84;6213745;23;20440;-77
2023/10/22 11:36:38;;;;;;;6.38;3.55;;;;;;;-143.90;100.00;65065.84;6213603;23;20011;-77
2023/10/22 11:39:18;;;;;;;5.95;4.55;;;;;;;-143.90;100.00;65065.84;6212087;23;20008;-77